createdAt,value
2023-08-17T00:00:16.512Z,18.78
2023-08-17T00:01:22.126Z,18.22
2023-08-17T00:02:24.458Z,18.58
2023-08-17T00:03:27.723Z,18.87
2023-08-17T00:04:30.714Z,18.25
2023-08-17T00:05:34.609Z,18.00
2023-08-17T00:06:36.884Z,18.37
2023-08-17T00:07:40.090Z,17.32
2023-08-17T00:08:43.064Z,17.78
2023-08-17T00:09:46.266Z,16.82
2023-08-17T00:10:49.000Z,17.07
2023-08-17T00:11:52.274Z,16.48
2023-08-17T00:12:55.196Z,17.73
2023-08-17T00:13:58.328Z,18.87
2023-08-17T00:15:00.628Z,18.30
2023-08-17T00:16:04.035Z,17.93
2023-08-17T00:17:07.664Z,18.07
2023-08-17T00:18:10.770Z,17.67
2023-08-17T00:19:13.863Z,17.35
2023-08-17T00:20:17.782Z,18.08
2023-08-17T00:21:20.040Z,17.18
2023-08-17T00:22:23.196Z,17.00
2023-08-17T00:23:25.385Z,17.35
2023-08-17T00:24:28.562Z,17.67
2023-08-17T00:25:30.718Z,17.80
2023-08-17T00:26:33.824Z,17.28
2023-08-17T00:27:36.046Z,17.28
2023-08-17T00:28:38.863Z,17.28
2023-08-17T00:29:42.072Z,16.97
2023-08-17T00:30:44.289Z,16.70
2023-08-17T00:31:47.537Z,16.07
2023-08-17T00:32:51.077Z,16.58
2023-08-17T00:33:54.271Z,17.13
2023-08-17T00:34:56.665Z,16.95
2023-08-17T00:35:59.834Z,16.87
2023-08-17T00:37:02.023Z,16.40
2023-08-17T00:38:05.589Z,15.80
2023-08-17T00:39:07.938Z,16.45
2023-08-17T00:40:12.248Z,16.90
2023-08-17T00:41:14.408Z,16.68
2023-08-17T00:42:17.529Z,16.42
2023-08-17T00:43:19.850Z,15.78
2023-08-17T00:44:23.025Z,15.48
2023-08-17T00:45:25.449Z,16.92
2023-08-17T00:46:29.119Z,16.03
2023-08-17T00:47:31.464Z,15.65
2023-08-17T00:48:36.141Z,16.33
2023-08-17T00:49:38.457Z,16.28
2023-08-17T00:50:42.624Z,15.88
2023-08-17T00:51:44.858Z,16.25
2023-08-17T00:52:48.018Z,16.67
2023-08-17T00:53:51.049Z,16.67
2023-08-17T00:54:54.341Z,16.23
2023-08-17T00:55:57.075Z,16.08
2023-08-17T00:57:01.207Z,16.32
2023-08-17T00:58:03.554Z,16.30
2023-08-17T00:59:06.889Z,15.90
2023-08-17T01:00:10.568Z,15.50
2023-08-17T01:01:13.791Z,15.65
2023-08-17T01:02:16.012Z,16.42
2023-08-17T01:03:19.910Z,15.60
2023-08-17T01:04:23.626Z,16.32
2023-08-17T01:05:26.777Z,15.82
2023-08-17T01:06:28.950Z,16.27
2023-08-17T01:07:32.080Z,15.67
2023-08-17T01:08:34.474Z,15.27
2023-08-17T01:09:37.969Z,16.27
2023-08-17T01:10:49.257Z,16.15
2023-08-17T01:12:05.884Z,15.00
2023-08-17T01:13:13.047Z,15.57
2023-08-17T01:14:20.250Z,15.27
2023-08-17T01:15:28.934Z,15.77
2023-08-17T01:16:36.122Z,15.22
2023-08-17T01:17:43.628Z,15.72
2023-08-17T01:18:48.623Z,15.52
2023-08-17T01:19:54.370Z,15.60
2023-08-17T01:20:58.237Z,15.42
2023-08-17T01:22:05.084Z,15.58
2023-08-17T01:23:10.080Z,15.83
2023-08-17T01:24:13.065Z,15.75
2023-08-17T01:25:16.302Z,15.72
2023-08-17T01:26:18.573Z,16.08
2023-08-17T01:27:21.740Z,15.92
2023-08-17T01:28:23.925Z,15.50
2023-08-17T01:29:27.646Z,15.62
2023-08-17T01:30:33.021Z,16.07
2023-08-17T01:31:42.885Z,16.43
2023-08-17T01:32:50.529Z,16.97
2023-08-17T01:33:58.228Z,16.23
2023-08-17T01:35:15.489Z,17.65
2023-08-17T01:36:23.093Z,16.20
2023-08-17T01:37:29.848Z,17.08
2023-08-17T01:38:35.575Z,16.33
2023-08-17T01:39:41.097Z,16.70
2023-08-17T01:40:44.526Z,16.62
2023-08-17T01:41:49.571Z,17.05
2023-08-17T01:42:52.096Z,17.27
2023-08-17T01:43:56.405Z,17.78
2023-08-17T01:44:58.694Z,17.63
2023-08-17T01:46:02.309Z,18.00
2023-08-17T01:47:05.349Z,17.17
2023-08-17T01:48:07.880Z,17.30
2023-08-17T01:49:11.098Z,18.35
2023-08-17T01:50:13.308Z,18.48
2023-08-17T01:51:19.982Z,19.03
2023-08-17T01:52:23.184Z,18.25
2023-08-17T01:53:25.458Z,19.12
2023-08-17T01:54:29.974Z,18.68
2023-08-17T01:55:32.171Z,18.88
2023-08-17T01:56:35.277Z,19.48
2023-08-17T01:57:38.008Z,19.65
2023-08-17T01:58:41.240Z,18.73
2023-08-17T01:59:43.469Z,19.08
2023-08-17T02:00:46.725Z,18.52
2023-08-17T02:01:49.016Z,17.60
2023-08-17T02:02:52.245Z,18.22
2023-08-17T02:03:54.465Z,19.57
2023-08-17T02:04:57.621Z,18.75
2023-08-17T02:06:00.220Z,18.27
2023-08-17T02:07:03.324Z,18.88
2023-08-17T02:08:05.665Z,18.67
2023-08-17T02:09:08.775Z,18.07
2023-08-17T02:10:12.483Z,18.37
2023-08-17T02:11:15.631Z,18.80
2023-08-17T02:12:17.839Z,18.33
2023-08-17T02:13:21.149Z,17.75
2023-08-17T02:14:23.402Z,17.72
2023-08-17T02:15:26.547Z,18.47
2023-08-17T02:16:28.702Z,17.92
2023-08-17T02:17:31.879Z,18.23
2023-08-17T02:18:35.867Z,17.27
2023-08-17T02:19:39.428Z,17.80
2023-08-17T02:20:41.615Z,18.35
2023-08-17T02:21:44.703Z,17.58
2023-08-17T02:22:46.942Z,17.55
2023-08-17T02:23:50.070Z,17.82
2023-08-17T02:24:52.257Z,17.27
2023-08-17T02:25:56.775Z,17.70
2023-08-17T02:26:59.066Z,17.43
2023-08-17T02:28:02.257Z,17.40
2023-08-17T02:29:04.660Z,17.73
2023-08-17T02:30:09.093Z,18.65
2023-08-17T02:31:11.355Z,17.67
2023-08-17T02:32:14.534Z,17.60
2023-08-17T02:33:16.684Z,17.45
2023-08-17T02:34:19.832Z,17.47
2023-08-17T02:35:22.114Z,17.00
2023-08-17T02:36:25.314Z,17.43
2023-08-17T02:37:27.884Z,18.40
2023-08-17T02:38:31.294Z,18.18
2023-08-17T02:39:33.436Z,18.12
2023-08-17T02:40:36.570Z,18.08
2023-08-17T02:41:40.389Z,18.53
2023-08-17T02:42:43.546Z,18.35
2023-08-17T02:43:45.695Z,18.37
2023-08-17T02:44:49.038Z,19.33
2023-08-17T02:45:51.216Z,18.97
2023-08-17T02:46:54.347Z,18.65
2023-08-17T02:47:56.641Z,19.17
2023-08-17T02:48:59.752Z,19.08
2023-08-17T02:50:01.934Z,19.15
2023-08-17T02:51:05.135Z,18.47
2023-08-17T02:52:07.421Z,18.53
2023-08-17T02:53:10.643Z,19.00
2023-08-17T02:54:12.810Z,19.22
2023-08-17T02:55:15.156Z,19.77
2023-08-17T02:56:18.291Z,19.28
2023-08-17T02:57:21.863Z,19.15
2023-08-17T02:58:25.207Z,18.77
2023-08-17T02:59:27.479Z,19.27
2023-08-17T03:00:30.824Z,19.05
2023-08-17T03:01:33.379Z,18.55
2023-08-17T03:02:36.885Z,19.63
2023-08-17T03:03:39.230Z,19.35
2023-08-17T03:04:42.541Z,19.63
2023-08-17T03:05:44.690Z,19.82
2023-08-17T03:06:47.878Z,19.68
2023-08-17T03:07:50.072Z,18.97
2023-08-17T03:08:53.676Z,19.47
2023-08-17T03:09:55.843Z,19.12
2023-08-17T03:10:59.100Z,19.18
2023-08-17T03:12:01.299Z,19.50
2023-08-17T03:13:06.099Z,19.52
2023-08-17T03:14:08.304Z,19.23
2023-08-17T03:15:12.507Z,19.50
2023-08-17T03:16:14.875Z,19.98
2023-08-17T03:17:17.018Z,19.25
2023-08-17T03:18:20.100Z,19.60
2023-08-17T03:19:22.293Z,19.77
2023-08-17T03:20:25.457Z,20.80
2023-08-17T03:21:27.602Z,20.38
2023-08-17T03:22:30.697Z,20.32
2023-08-17T03:23:33.854Z,20.77
2023-08-17T03:24:37.007Z,21.15
2023-08-17T03:25:39.191Z,21.43
2023-08-17T03:26:42.376Z,21.20
2023-08-17T03:27:44.571Z,20.85
2023-08-17T03:28:49.119Z,20.72
2023-08-17T03:29:51.394Z,20.07
2023-08-17T03:30:57.544Z,20.55
2023-08-17T03:31:59.740Z,21.20
2023-08-17T03:33:02.965Z,20.95
2023-08-17T03:34:05.116Z,21.35
2023-08-17T03:35:09.116Z,21.85
2023-08-17T03:36:11.265Z,21.92
2023-08-17T03:37:14.503Z,21.45
2023-08-17T03:38:16.719Z,22.12
2023-08-17T03:39:19.907Z,22.88
2023-08-17T03:40:22.152Z,21.57
2023-08-17T03:41:25.640Z,21.30
2023-08-17T03:42:27.925Z,21.62
2023-08-17T03:43:31.021Z,22.02
2023-08-17T03:44:34.624Z,21.98
2023-08-17T03:45:37.736Z,21.82
2023-08-17T03:46:39.896Z,22.25
2023-08-17T03:47:43.141Z,22.93
2023-08-17T03:48:45.489Z,23.03
2023-08-17T03:49:48.755Z,23.18
2023-08-17T03:50:52.685Z,23.62
2023-08-17T03:51:55.811Z,24.03
2023-08-17T03:52:57.969Z,24.20
2023-08-17T03:54:01.250Z,23.82
2023-08-17T03:55:03.832Z,24.02
2023-08-17T03:56:07.099Z,23.47
2023-08-17T03:57:09.406Z,23.55
2023-08-17T03:58:11.542Z,23.35
2023-08-17T03:59:14.691Z,23.18
2023-08-17T04:00:18.442Z,23.57
2023-08-17T04:01:21.568Z,23.65
2023-08-17T04:02:23.718Z,23.05
2023-08-17T04:03:26.823Z,23.83
2023-08-17T04:04:29.044Z,23.98
2023-08-17T04:05:32.186Z,23.15
2023-08-17T04:06:34.579Z,23.40
2023-08-17T04:07:38.344Z,23.35
2023-08-17T04:08:40.547Z,23.43
2023-08-17T04:09:46.273Z,23.43
2023-08-17T04:10:48.461Z,23.73
2023-08-17T04:11:51.581Z,24.82
2023-08-17T04:12:53.749Z,24.53
2023-08-17T04:13:56.906Z,23.78
2023-08-17T04:14:59.084Z,24.22
2023-08-17T04:16:03.672Z,23.82
2023-08-17T04:17:06.227Z,23.12
2023-08-17T04:18:09.416Z,22.67
2023-08-17T04:19:11.678Z,22.42
2023-08-17T04:20:14.899Z,22.53
2023-08-17T04:21:17.021Z,21.38
2023-08-17T04:22:20.165Z,22.18
2023-08-17T04:23:22.349Z,22.32
2023-08-17T04:24:24.494Z,21.77
2023-08-17T04:25:27.669Z,22.15
2023-08-17T04:26:29.853Z,22.37
2023-08-17T04:27:33.035Z,22.40
2023-08-17T04:28:35.219Z,21.70
2023-08-17T04:29:39.731Z,22.85
2023-08-17T04:30:42.084Z,21.95
2023-08-17T04:31:46.785Z,23.02
2023-08-17T04:32:53.563Z,22.65
2023-08-17T04:33:57.046Z,21.88
2023-08-17T04:34:59.241Z,21.97
2023-08-17T04:36:02.344Z,21.85
2023-08-17T04:37:04.750Z,22.12
2023-08-17T04:38:07.875Z,22.75
2023-08-17T04:39:10.584Z,21.98
2023-08-17T04:40:14.967Z,22.32
2023-08-17T04:41:18.040Z,22.33
2023-08-17T04:42:21.693Z,22.62
2023-08-17T04:43:23.913Z,22.45
2023-08-17T04:44:27.166Z,22.75
2023-08-17T04:45:29.405Z,22.25
2023-08-17T04:46:32.606Z,22.23
2023-08-17T04:47:36.125Z,22.63
2023-08-17T04:48:39.353Z,22.85
2023-08-17T04:49:41.578Z,22.83
2023-08-17T04:50:44.739Z,22.95
2023-08-17T04:51:46.915Z,23.72
2023-08-17T04:52:50.063Z,22.95
2023-08-17T04:53:52.220Z,22.95
2023-08-17T04:54:55.347Z,23.45
2023-08-17T04:55:57.522Z,23.82
2023-08-17T04:57:00.792Z,23.18
2023-08-17T04:58:02.974Z,23.08
2023-08-17T04:59:06.769Z,23.28
2023-08-17T05:00:10.809Z,23.05
2023-08-17T05:01:14.084Z,23.52
2023-08-17T05:02:16.444Z,23.33
2023-08-17T05:03:32.077Z,24.68
2023-08-17T05:04:36.695Z,24.65
2023-08-17T05:05:40.024Z,25.08
2023-08-17T05:06:42.265Z,24.08
2023-08-17T05:07:45.468Z,24.88
2023-08-17T05:08:47.786Z,24.30
2023-08-17T05:09:50.946Z,24.83
2023-08-17T05:10:53.144Z,24.73
2023-08-17T05:11:56.732Z,25.70
2023-08-17T05:12:59.015Z,25.83
2023-08-17T05:14:02.190Z,26.25
2023-08-17T05:15:04.947Z,25.88
2023-08-17T05:16:08.092Z,25.50
2023-08-17T05:17:10.269Z,26.48
2023-08-17T05:18:13.392Z,25.20
2023-08-17T05:19:16.889Z,25.70
2023-08-17T05:20:21.693Z,26.07
2023-08-17T05:21:23.873Z,26.47
2023-08-17T05:22:27.068Z,26.40
2023-08-17T05:23:29.260Z,26.45
2023-08-17T05:24:32.423Z,26.57
2023-08-17T05:25:34.591Z,26.42
2023-08-17T05:26:37.782Z,25.87
2023-08-17T05:27:39.995Z,26.85
2023-08-17T05:28:43.506Z,26.52
2023-08-17T05:29:45.679Z,26.38
2023-08-17T05:30:48.867Z,27.30
2023-08-17T05:31:51.076Z,26.10
2023-08-17T05:32:54.301Z,25.15
2023-08-17T05:33:56.487Z,25.93
2023-08-17T05:35:00.997Z,24.72
2023-08-17T05:36:03.296Z,25.00
2023-08-17T05:37:06.422Z,25.27
2023-08-17T05:38:08.648Z,25.30
2023-08-17T05:39:11.842Z,24.53
2023-08-17T05:40:14.096Z,24.30
2023-08-17T05:41:18.661Z,24.58
2023-08-17T05:42:20.789Z,25.32
2023-08-17T05:43:24.265Z,25.22
2023-08-17T05:44:26.593Z,24.57
2023-08-17T05:45:29.869Z,24.48
2023-08-17T05:46:32.207Z,26.37
2023-08-17T05:47:35.437Z,25.58
2023-08-17T05:48:37.645Z,24.82
2023-08-17T05:49:40.801Z,24.28
2023-08-17T05:50:44.506Z,24.53
2023-08-17T05:51:47.749Z,25.32
2023-08-17T05:52:49.926Z,24.55
2023-08-17T05:53:53.028Z,24.78
2023-08-17T05:54:55.294Z,25.08
2023-08-17T05:55:58.525Z,25.82
2023-08-17T05:57:00.742Z,25.78
2023-08-17T05:58:03.242Z,25.48
2023-08-17T05:59:06.484Z,26.62
2023-08-17T06:00:11.424Z,26.40
2023-08-17T06:01:14.954Z,26.48
2023-08-17T06:02:17.263Z,25.67
2023-08-17T06:03:20.441Z,25.52
2023-08-17T06:04:22.749Z,25.82
2023-08-17T06:05:26.534Z,25.52
2023-08-17T06:06:31.149Z,26.27
2023-08-17T06:07:33.392Z,26.52
2023-08-17T06:08:36.505Z,25.85
2023-08-17T06:09:38.665Z,26.70
2023-08-17T06:10:42.021Z,26.65
2023-08-17T06:11:44.173Z,26.90
2023-08-17T06:12:47.313Z,25.73
2023-08-17T06:13:49.634Z,25.72
2023-08-17T06:14:52.791Z,25.68
2023-08-17T06:15:56.530Z,26.33
2023-08-17T06:17:02.021Z,25.25
2023-08-17T06:18:04.840Z,26.60
2023-08-17T06:19:07.985Z,27.95
2023-08-17T06:20:11.734Z,26.95
2023-08-17T06:21:14.874Z,27.70
2023-08-17T06:22:18.450Z,28.02
2023-08-17T06:23:21.844Z,25.55
2023-08-17T06:24:24.077Z,24.60
2023-08-17T06:25:27.658Z,23.32
2023-08-17T06:26:30.170Z,22.03
2023-08-17T06:27:33.476Z,21.12
2023-08-17T06:28:35.685Z,21.00
2023-08-17T06:29:38.816Z,18.90
2023-08-17T06:30:41.090Z,18.95
2023-08-17T06:31:44.247Z,18.85
2023-08-17T06:32:46.578Z,18.83
2023-08-17T06:33:49.756Z,18.02
2023-08-17T06:34:51.993Z,17.45
2023-08-17T06:35:55.169Z,16.88
2023-08-17T06:37:02.952Z,16.63
2023-08-17T06:38:07.588Z,17.05
2023-08-17T06:39:10.013Z,16.60
2023-08-17T06:40:13.487Z,16.67
2023-08-17T06:41:15.657Z,16.28
2023-08-17T06:42:18.789Z,15.35
2023-08-17T06:43:20.953Z,15.05
2023-08-17T06:44:24.123Z,15.17
2023-08-17T06:45:26.429Z,13.73
2023-08-17T06:46:29.810Z,13.02
2023-08-17T06:47:32.098Z,11.75
2023-08-17T06:48:35.311Z,11.48
2023-08-17T06:49:37.476Z,11.65
2023-08-17T06:50:40.772Z,12.22
2023-08-17T06:51:42.932Z,12.27
2023-08-17T06:52:46.074Z,11.67
2023-08-17T06:53:49.978Z,11.55
2023-08-17T06:54:52.232Z,11.78
2023-08-17T06:55:55.339Z,12.18
2023-08-17T06:56:57.575Z,11.98
2023-08-17T06:58:00.686Z,12.42
2023-08-17T06:59:04.037Z,11.65
2023-08-17T07:00:07.234Z,11.28
2023-08-17T07:01:10.945Z,11.75
2023-08-17T07:02:13.241Z,11.77
2023-08-17T07:03:17.346Z,10.95
2023-08-17T07:04:19.615Z,10.93
2023-08-17T07:05:22.882Z,11.93
2023-08-17T07:06:25.126Z,11.15
2023-08-17T07:07:27.598Z,11.33
2023-08-17T07:08:31.062Z,11.23
2023-08-17T07:09:34.652Z,11.53
2023-08-17T07:10:37.904Z,11.87
2023-08-17T07:11:40.173Z,11.87
2023-08-17T07:12:43.361Z,11.65
2023-08-17T07:13:45.490Z,11.08
2023-08-17T07:14:48.635Z,10.10
2023-08-17T07:15:50.871Z,10.17
2023-08-17T07:16:54.035Z,10.12
2023-08-17T07:17:56.185Z,9.77
2023-08-17T07:18:59.333Z,9.65
2023-08-17T07:21:08.233Z,9.12
2023-08-17T07:22:10.393Z,9.73
2023-08-17T07:23:12.713Z,9.60
2023-08-17T07:24:17.609Z,9.27
2023-08-17T07:25:21.199Z,9.45
2023-08-17T07:26:24.877Z,8.65
2023-08-17T07:27:27.980Z,8.53
2023-08-17T07:28:31.422Z,8.15
2023-08-17T07:29:33.695Z,8.75
2023-08-17T07:30:36.914Z,8.62
2023-08-17T07:31:39.604Z,8.55
2023-08-17T07:32:43.831Z,8.07
2023-08-17T07:33:46.134Z,7.82
2023-08-17T07:34:49.326Z,8.38
2023-08-17T07:35:51.480Z,8.13
2023-08-17T07:36:54.776Z,7.83
2023-08-17T07:38:08.280Z,7.87
2023-08-17T07:39:12.323Z,7.53
2023-08-17T07:40:14.551Z,7.45
2023-08-17T07:41:19.084Z,7.42
2023-08-17T07:42:21.441Z,7.08
2023-08-17T07:43:24.868Z,8.00
2023-08-17T07:44:27.016Z,8.12
2023-08-17T07:45:30.209Z,7.43
2023-08-17T07:46:32.395Z,7.58
2023-08-17T07:47:36.512Z,8.17
2023-08-17T07:48:38.756Z,8.07
2023-08-17T07:49:41.957Z,8.10
2023-08-17T07:50:44.122Z,7.85
2023-08-17T07:51:47.332Z,8.37
2023-08-17T07:52:49.499Z,8.35
2023-08-17T07:53:52.668Z,8.57
2023-08-17T07:54:55.335Z,8.63
2023-08-17T07:55:58.788Z,8.67
2023-08-17T07:57:04.255Z,8.23
2023-08-17T07:58:07.862Z,8.52
2023-08-17T07:59:10.081Z,8.10
2023-08-17T08:00:14.290Z,7.92
2023-08-17T08:01:16.603Z,8.05
2023-08-17T08:02:19.824Z,7.58
2023-08-17T08:03:21.940Z,7.95
2023-08-17T08:04:25.215Z,7.75
2023-08-17T08:05:27.683Z,7.97
2023-08-17T08:06:31.041Z,8.05
2023-08-17T08:07:33.412Z,7.88
2023-08-17T08:08:36.573Z,7.90
2023-08-17T08:09:38.820Z,7.73
2023-08-17T08:10:42.446Z,7.92
2023-08-17T08:11:44.606Z,7.68
2023-08-17T08:12:49.022Z,7.73
2023-08-17T08:13:51.258Z,7.55
2023-08-17T08:14:54.546Z,7.10
2023-08-17T08:15:56.806Z,7.17
2023-08-17T08:16:59.963Z,7.47
2023-08-17T08:18:02.201Z,7.18
2023-08-17T08:19:05.949Z,7.20
2023-08-17T08:20:09.071Z,7.37
2023-08-17T08:21:12.146Z,6.73
2023-08-17T08:22:14.292Z,6.88
2023-08-17T08:23:17.567Z,6.98
2023-08-17T08:24:35.058Z,6.75
2023-08-17T08:25:40.740Z,7.18
2023-08-17T08:26:42.935Z,7.28
2023-08-17T08:27:46.215Z,7.72
2023-08-17T08:28:49.717Z,7.47
2023-08-17T08:29:53.039Z,7.52
2023-08-17T08:30:55.222Z,8.20
2023-08-17T08:32:00.505Z,7.70
2023-08-17T08:33:02.951Z,7.28
2023-08-17T08:34:06.205Z,7.60
2023-08-17T08:35:09.026Z,7.32
2023-08-17T08:36:12.272Z,7.53
2023-08-17T08:37:14.465Z,7.68
2023-08-17T08:38:17.626Z,7.58
2023-08-17T08:39:19.769Z,7.90
2023-08-17T08:40:29.344Z,7.58
2023-08-17T08:41:32.633Z,7.58
2023-08-17T08:42:35.822Z,7.65
2023-08-17T08:43:37.998Z,7.97
2023-08-17T08:44:42.510Z,7.87
2023-08-17T08:45:45.645Z,7.38
2023-08-17T08:46:50.615Z,7.87
2023-08-17T08:47:53.762Z,7.48
2023-08-17T08:48:57.254Z,7.27
2023-08-17T08:50:02.765Z,7.12
2023-08-17T08:51:06.386Z,7.57
2023-08-17T08:52:09.764Z,7.38
2023-08-17T08:53:16.280Z,7.62
2023-08-17T08:54:22.462Z,7.55
2023-08-17T08:55:26.490Z,8.08
2023-08-17T08:56:33.147Z,7.48
2023-08-17T08:57:36.817Z,7.87
2023-08-17T08:58:39.986Z,7.98
2023-08-17T08:59:47.177Z,7.55
2023-08-17T09:00:49.448Z,7.70
2023-08-17T09:01:52.923Z,7.47
2023-08-17T09:02:55.560Z,7.30
2023-08-17T09:04:00.124Z,7.55
2023-08-17T09:05:03.404Z,7.78
2023-08-17T09:06:07.311Z,7.70
2023-08-17T09:07:10.630Z,7.78
2023-08-17T09:08:17.608Z,7.70
2023-08-17T09:09:20.044Z,7.22
2023-08-17T09:10:23.272Z,7.73
2023-08-17T09:11:25.705Z,7.97
2023-08-17T09:12:39.502Z,7.97
2023-08-17T09:13:43.999Z,7.73
2023-08-17T09:14:48.507Z,8.08
2023-08-17T09:15:50.814Z,8.02
2023-08-17T09:16:53.953Z,7.93
2023-08-17T09:17:56.546Z,7.85
2023-08-17T09:18:59.891Z,7.75
2023-08-17T09:20:02.211Z,8.05
2023-08-17T09:21:05.476Z,7.75
2023-08-17T09:22:07.753Z,8.03
2023-08-17T09:23:15.180Z,7.75
2023-08-17T09:24:17.407Z,8.02
2023-08-17T09:25:25.027Z,8.08
2023-08-17T09:26:32.024Z,7.70
2023-08-17T09:27:35.371Z,8.28
2023-08-17T09:28:40.098Z,8.10
2023-08-17T09:29:46.881Z,8.10
2023-08-17T09:30:58.885Z,7.98
2023-08-17T09:32:07.044Z,8.20
2023-08-17T09:33:10.384Z,7.93
2023-08-17T09:34:13.607Z,7.97
2023-08-17T09:35:15.798Z,8.08
2023-08-17T09:36:22.792Z,8.20
2023-08-17T09:37:24.927Z,8.42
2023-08-17T09:38:27.759Z,8.20
2023-08-17T09:39:30.867Z,8.12
2023-08-17T09:40:33.100Z,8.20
2023-08-17T09:41:42.109Z,8.47
2023-08-17T09:42:45.858Z,8.13
2023-08-17T09:43:49.499Z,8.30
2023-08-17T09:44:51.713Z,8.30
2023-08-17T09:45:58.168Z,8.40
2023-08-17T09:47:00.388Z,8.40
2023-08-17T09:48:03.954Z,8.35
2023-08-17T09:49:07.222Z,8.13
2023-08-17T09:50:11.264Z,7.95
2023-08-17T09:51:16.896Z,7.72
2023-08-17T09:52:20.848Z,8.00
2023-08-17T09:53:23.063Z,8.18
2023-08-17T09:54:28.043Z,8.20
2023-08-17T09:55:33.222Z,8.57
2023-08-17T09:56:35.841Z,8.20
2023-08-17T09:57:39.912Z,8.20
2023-08-17T09:58:42.108Z,8.52
2023-08-17T09:59:45.239Z,7.85
2023-08-17T10:00:51.039Z,8.50
2023-08-17T10:01:57.332Z,7.93
2023-08-17T10:03:07.525Z,7.87
2023-08-17T10:04:12.961Z,8.43
2023-08-17T10:05:22.654Z,8.13
2023-08-17T10:06:29.320Z,8.78
2023-08-17T10:07:34.424Z,8.77
2023-08-17T10:08:44.325Z,8.73
2023-08-17T10:09:51.103Z,8.13
2023-08-17T10:10:56.789Z,8.40
2023-08-17T10:12:04.098Z,8.18
2023-08-17T10:13:11.528Z,8.77
2023-08-17T10:14:18.427Z,8.30
2023-08-17T10:15:22.131Z,8.55
2023-08-17T10:16:30.356Z,8.38
2023-08-17T10:17:42.312Z,8.35
2023-08-17T10:18:52.318Z,8.37
2023-08-17T10:19:57.481Z,8.25
2023-08-17T10:21:03.189Z,8.85
2023-08-17T10:22:10.925Z,8.45
2023-08-17T10:23:16.336Z,7.82
2023-08-17T10:24:20.295Z,8.38
2023-08-17T10:25:23.232Z,8.33
2023-08-17T10:26:26.385Z,8.80
2023-08-17T10:27:29.992Z,8.15
2023-08-17T10:28:32.919Z,8.30
2023-08-17T10:29:37.080Z,8.52
2023-08-17T10:30:39.882Z,8.65
2023-08-17T10:31:46.441Z,8.67
2023-08-17T10:32:50.195Z,8.58
2023-08-17T10:33:53.607Z,7.70
2023-08-17T10:34:55.924Z,8.10
2023-08-17T10:35:59.764Z,8.18
2023-08-17T10:37:02.127Z,8.12
2023-08-17T10:38:10.679Z,8.35
2023-08-17T10:39:20.138Z,8.27
2023-08-17T10:40:29.029Z,8.57
2023-08-17T10:41:31.294Z,8.33
2023-08-17T10:42:36.298Z,8.30
2023-08-17T10:43:55.260Z,9.07
2023-08-17T10:44:58.442Z,8.25
2023-08-17T10:46:16.228Z,8.13
2023-08-17T10:47:23.577Z,8.17
2023-08-17T10:48:30.711Z,9.03
2023-08-17T10:50:43.715Z,8.40
2023-08-17T10:52:02.152Z,8.43
2023-08-17T10:53:06.161Z,8.87
2023-08-17T10:54:09.976Z,8.65
2023-08-17T10:55:13.653Z,8.47
2023-08-17T10:56:18.911Z,8.82
2023-08-17T10:57:32.025Z,8.78
2023-08-17T10:58:35.259Z,8.92
2023-08-17T10:59:37.417Z,8.60
2023-08-17T11:00:41.117Z,8.52
2023-08-17T11:01:43.388Z,8.90
2023-08-17T11:02:45.883Z,8.50
2023-08-17T11:04:13.681Z,7.88
2023-08-17T11:05:18.331Z,8.23
2023-08-17T11:06:21.842Z,8.37
2023-08-17T11:07:24.621Z,8.43
2023-08-17T11:08:31.363Z,8.35
2023-08-17T11:09:36.556Z,8.40
2023-08-17T11:10:39.579Z,8.38
2023-08-17T11:11:42.828Z,7.83
2023-08-17T11:12:45.451Z,8.37
2023-08-17T11:13:49.364Z,7.95
2023-08-17T11:14:51.647Z,8.05
2023-08-17T11:15:54.846Z,7.68
2023-08-17T11:16:57.036Z,8.40
2023-08-17T11:18:00.225Z,8.17
2023-08-17T11:19:05.391Z,8.77
2023-08-17T11:20:15.017Z,8.47
2023-08-17T11:21:20.109Z,9.03
2023-08-17T11:23:30.551Z,8.58
2023-08-17T11:24:33.752Z,8.20
2023-08-17T11:25:36.092Z,8.12
2023-08-17T11:26:39.310Z,8.57
2023-08-17T11:27:41.451Z,8.55
2023-08-17T11:28:46.042Z,8.32
2023-08-17T11:29:48.565Z,7.98
2023-08-17T11:30:59.256Z,8.05
2023-08-17T11:32:01.772Z,8.63
2023-08-17T11:33:05.475Z,8.97
2023-08-17T11:34:10.043Z,8.02
2023-08-17T11:35:12.477Z,8.23
2023-08-17T11:36:15.728Z,8.35
2023-08-17T11:37:18.102Z,8.42
2023-08-17T11:38:21.239Z,8.30
2023-08-17T11:39:23.557Z,8.67
2023-08-17T11:40:27.813Z,8.37
2023-08-17T11:41:30.120Z,8.08
2023-08-17T11:42:33.327Z,8.17
2023-08-17T11:43:35.793Z,8.53
2023-08-17T11:44:40.176Z,8.63
2023-08-17T11:45:43.008Z,8.72
2023-08-17T11:46:46.273Z,8.65
2023-08-17T11:47:50.311Z,7.92
2023-08-17T11:48:54.918Z,8.28
2023-08-17T11:50:14.857Z,8.42
2023-08-17T11:51:30.932Z,8.45
2023-08-17T11:52:33.956Z,8.25
2023-08-17T11:53:37.547Z,8.10
2023-08-17T11:54:41.945Z,7.68
2023-08-17T11:55:45.942Z,8.07
2023-08-17T11:56:48.123Z,8.13
2023-08-17T11:57:51.322Z,8.33
2023-08-17T11:58:53.564Z,7.93
2023-08-17T11:59:57.659Z,8.02
2023-08-17T12:00:59.894Z,7.98
2023-08-17T12:02:03.327Z,7.85
2023-08-17T12:03:06.314Z,8.13
2023-08-17T12:04:10.042Z,8.02
2023-08-17T12:05:13.641Z,7.98
2023-08-17T12:06:18.610Z,7.68
2023-08-17T12:07:21.160Z,8.07
2023-08-17T12:08:24.900Z,8.20
2023-08-17T12:09:27.269Z,7.98
2023-08-17T12:10:30.586Z,8.05
2023-08-17T12:11:32.706Z,8.05
2023-08-17T12:12:39.553Z,8.23
2023-08-17T12:13:41.965Z,8.23
2023-08-17T12:14:45.352Z,8.70
2023-08-17T12:15:49.507Z,8.05
2023-08-17T12:16:51.715Z,8.30
2023-08-17T12:17:54.800Z,7.75
2023-08-17T12:18:56.938Z,7.77
2023-08-17T12:20:01.163Z,8.33
2023-08-17T12:21:05.201Z,7.93
2023-08-17T12:22:08.407Z,7.63
2023-08-17T12:23:10.574Z,8.12
2023-08-17T12:24:15.639Z,8.25
2023-08-17T12:25:23.237Z,8.75
2023-08-17T12:26:25.459Z,8.20
2023-08-17T12:27:28.695Z,8.28
2023-08-17T12:28:36.777Z,8.62
2023-08-17T12:29:49.322Z,8.52
2023-08-17T12:30:59.087Z,8.72
2023-08-17T12:32:04.058Z,8.75
2023-08-17T12:33:06.497Z,8.35
2023-08-17T12:34:09.659Z,8.53
2023-08-17T12:35:11.853Z,8.77
2023-08-17T12:36:16.837Z,8.35
2023-08-17T12:37:22.681Z,8.70
2023-08-17T12:38:26.697Z,8.42
2023-08-17T12:39:28.880Z,8.35
2023-08-17T12:40:32.028Z,8.43
2023-08-17T12:41:34.232Z,7.92
2023-08-17T12:42:36.450Z,8.47
2023-08-17T12:43:39.599Z,8.08
2023-08-17T12:44:42.218Z,7.87
2023-08-17T12:45:45.488Z,7.97
2023-08-17T12:46:47.729Z,8.25
2023-08-17T12:47:51.092Z,7.90
2023-08-17T12:48:53.329Z,7.85
2023-08-17T12:49:56.479Z,8.63
2023-08-17T12:50:58.682Z,8.17
2023-08-17T12:52:03.216Z,7.98
2023-08-17T12:53:05.372Z,8.18
2023-08-17T12:54:08.575Z,7.48
2023-08-17T12:55:10.805Z,7.92
2023-08-17T12:56:13.957Z,8.23
2023-08-17T12:57:16.137Z,8.05
2023-08-17T12:58:19.263Z,8.18
2023-08-17T12:59:21.471Z,7.42
2023-08-17T13:00:24.979Z,7.57
2023-08-17T13:01:27.199Z,8.12
2023-08-17T13:02:30.863Z,7.93
2023-08-17T13:03:33.301Z,8.15
2023-08-17T13:04:37.379Z,7.77
2023-08-17T13:05:41.261Z,8.13
2023-08-17T13:06:49.768Z,8.35
2023-08-17T13:07:53.822Z,8.17
2023-08-17T13:08:57.000Z,7.92
2023-08-17T13:09:59.148Z,8.17
2023-08-17T13:11:02.939Z,8.17
2023-08-17T13:12:05.565Z,8.13
2023-08-17T13:13:08.749Z,8.20
2023-08-17T13:14:10.999Z,7.90
2023-08-17T13:15:14.140Z,8.07
2023-08-17T13:16:17.133Z,8.28
2023-08-17T13:17:20.242Z,7.83
2023-08-17T13:18:22.367Z,8.43
2023-08-17T13:19:25.656Z,8.23
2023-08-17T13:20:27.929Z,7.92
2023-08-17T13:21:31.150Z,7.95
2023-08-17T13:22:33.331Z,8.25
2023-08-17T13:23:37.858Z,8.32
2023-08-17T13:24:41.184Z,7.98
2023-08-17T13:25:44.312Z,7.92
2023-08-17T13:26:46.644Z,7.97
2023-08-17T13:27:49.841Z,7.97
2023-08-17T13:28:52.018Z,7.95
2023-08-17T13:29:55.274Z,7.72
2023-08-17T13:31:02.500Z,8.48
2023-08-17T13:32:17.463Z,8.28
2023-08-17T13:33:19.743Z,8.03
2023-08-17T13:34:22.966Z,7.72
2023-08-17T13:35:25.902Z,8.28
2023-08-17T13:36:29.494Z,8.55
2023-08-17T13:37:31.719Z,8.28
2023-08-17T13:38:34.832Z,8.30
2023-08-17T13:39:38.349Z,8.33
2023-08-17T13:40:41.432Z,8.03
2023-08-17T13:41:44.254Z,7.77
2023-08-17T13:42:47.336Z,8.32
2023-08-17T13:43:49.511Z,8.05
2023-08-17T13:44:52.615Z,8.23
2023-08-17T13:45:54.811Z,8.38
2023-08-17T13:46:57.979Z,7.53
2023-08-17T13:48:00.265Z,7.75
2023-08-17T13:49:03.403Z,7.90
2023-08-17T13:50:06.988Z,8.58
2023-08-17T13:51:10.214Z,8.13
2023-08-17T13:52:12.467Z,8.45
2023-08-17T13:53:15.666Z,8.22
2023-08-17T13:54:17.832Z,8.67
2023-08-17T13:55:22.398Z,8.28
2023-08-17T13:56:25.108Z,8.32